You are not logged in, Click here to log in
ICAO: ZSAM Country: 中國福建省廈門島東北端
Latitude: 24.5391 Longitude: 118.134
Total Arrivals: 51 Total Departures: 45
Latest Arrival: CZ6231 (ZHCC-ZSAM)CHU. CHUHAO Latest Departure: F8M63 (ZSAM-RCKH)CHU. CHUHAO
Scenery:
METAR : ZSAM 151800Z 04004MPS CAVOK 27/22 Q1008 NOSIG

廈門高崎國際機場XMN